sim
Sign-in with your pilot id or email,
or register
Callsign
Passwort

Schedule Details

Flight Number: OEO6048
Departure: Hannover Langenhagen Airport (EDDV) at 06:05
Arrival: Fuerteventura Airport (GCFV) at 11:15

Weather Information
Getting current METAR information for EDDV 211850Z 08002KT CAVOK 18/08 Q1027 NOSIG
Getting current METAR information for GCFV 211900Z 01017KT 9999 FEW020 25/18 Q1013

Schedule Frequency

Route Map